Marco Polo — BR2031 — position and weather

sailwx.info

Track history (hours):
 
Tides and Currents Weather Stations Pressure Air Temp Water Temp Dewpoint Dewpoint Depression Visibility Wind Speed Wind Dir Waves Ship Positions

Marco Polo

Last reported at 2014-Jul-23 17:33 UTC. Time now 2014-Jul-23 18:06 UTC.
Position N 24°25' E 118°18'.

Length 32 m.

MMSI: 416000256.

Date/timePositionNaut miles runAvg speedWind from/ knotsBaromVisibWave heightAir tempDewpointWater temp
2014-Jul-23 17:33N 24°25' E 118°18'0 0.0
2014-Jul-23 16:33N 24°25' E 118°18'0 0.0
2014-Jul-23 15:33N 24°25' E 118°18'0 0.0
2014-Jul-23 11:04N 24°25' E 118°18'0 0.0
2014-Jul-23 10:33N 24°25' E 118°18'0 0.0
2014-Jul-23 09:33N 24°25' E 118°18'0 0.0
2014-Jul-23 08:33N 24°25' E 118°18'0 0.0
2014-Jul-23 07:32N 24°25' E 118°18'0 0.0
2014-Jul-23 06:33N 24°25' E 118°18'0 0.0
2014-Jul-23 05:33N 24°25' E 118°18'0 0.0
2014-Jul-23 04:23N 24°25' E 118°18'0 0.0
2014-Jul-23 03:33N 24°25' E 118°18'0 0.0
2014-Jul-23 02:33N 24°25' E 118°18'0 0.0
2014-Jul-23 01:33N 24°25' E 118°18'0 0.0
2014-Jul-23 00:33N 24°25' E 118°18'0 0.0
2014-Jul-22 23:32N 24°25' E 118°18'0 0.0
2014-Jul-22 22:33N 24°25' E 118°18'0 0.0
2014-Jul-22 21:33N 24°25' E 118°18'0 0.0
2014-Jul-22 20:33N 24°25' E 118°18'0 0.0
2014-Jul-22 19:34N 24°25' E 118°18'0 0.0
2014-Jul-22 18:33N 24°25' E 118°18'0 0.0
2014-Jul-22 17:33N 24°25' E 118°18'0 0.0
2014-Jul-22 16:33N 24°25' E 118°18'0 0.0
2014-Jul-22 15:33N 24°25' E 118°18'0 0.0
2014-Jul-22 11:05N 24°25' E 118°18'0 0.0
2014-Jul-22 10:33N 24°25' E 118°18'0 0.0
2014-Jul-22 09:33N 24°25' E 118°18'0 0.0
2014-Jul-22 08:32N 24°25' E 118°18'0 0.4
2014-Jul-22 07:33N 24°25' E 118°17'9 8.9
2014-Jul-22 06:33N 24°32' E 118°11'2 2.3
2014-Jul-22 05:33N 24°31' E 118°13'7 6.8
2014-Jul-22 04:31N 24°25' E 118°17'0 0.5
2014-Jul-22 03:33N 24°25' E 118°17'0 0.0
2014-Jul-22 02:33N 24°25' E 118°17'0 0.4
2014-Jul-22 01:33N 24°26' E 118°17'7 7.4
2014-Jul-22 00:34N 24°32' E 118°12'8 7.2
2014-Jul-21 23:26N 24°25' E 118°17'0 0.0
2014-Jul-21 22:33N 24°25' E 118°17'0 0.0
2014-Jul-21 11:04N 24°25' E 118°17'814.7
2014-Jul-21 10:33N 24°31' E 118°13'7 7.4
2014-Jul-21 09:33N 24°25' E 118°17'0 0.3
2014-Jul-21 08:33N 24°25' E 118°17'0 0.0
2014-Jul-21 02:30N 24°25' E 118°17'0 0.0
2014-Jul-21 01:18N 24°25' E 118°17'0 0.0
2014-Jul-21 00:24N 24°25' E 118°17'0 0.0
2014-Jul-20 23:07N 24°25' E 118°17'0 0.0
2014-Jul-20 22:30N 24°25' E 118°17'0 0.0
2014-Jul-20 21:33N 24°25' E 118°17'0 0.0
2014-Jul-20 20:29N 24°25' E 118°17'0 0.0
2014-Jul-20 19:33N 24°25' E 118°17'0 0.0
2014-Jul-20 18:26N 24°25' E 118°17'0 0.0
2014-Jul-20 10:33N 24°25' E 118°17'0 0.0
2014-Jul-20 09:32N 24°25' E 118°17'0 0.5
2014-Jul-20 08:33N 24°25' E 118°17'8 7.7
2014-Jul-20 07:33N 24°31' E 118°13'0 0.2
2014-Jul-20 06:33N 24°31' E 118°13'7 7.3
2014-Jul-20 05:32N 24°25' E 118°17'0 0.1
2014-Jul-20 04:33N 24°25' E 118°17'9 9.0
2014-Jul-20 03:33N 24°32' E 118°11'2 1.9
2014-Jul-20 02:33N 24°31' E 118°13'7 7.4
2014-Jul-20 01:33N 24°25' E 118°17'0 0.1
2014-Jul-20 00:33N 24°25' E 118°17'0 0.0
2014-Jul-19 23:33N 24°25' E 118°17'0 0.0
2014-Jul-19 22:34N 24°25' E 118°17'0 0.0
2014-Jul-19 21:34N 24°25' E 118°17'0 0.0
2014-Jul-19 20:34N 24°25' E 118°17'0 0.0
2014-Jul-19 19:34N 24°25' E 118°17'0 0.0
2014-Jul-19 18:34N 24°25' E 118°17'0 0.0
2014-Jul-19 17:33N 24°25' E 118°17'0 0.0
2014-Jul-19 16:33N 24°25' E 118°17'0 0.0
2014-Jul-19 15:33N 24°25' E 118°17'0 0.0
2014-Jul-19 11:04N 24°25' E 118°17'0 0.0
2014-Jul-19 10:33N 24°25' E 118°17'0 0.0
2014-Jul-19 09:34N 24°25' E 118°17'0 0.0
2014-Jul-19 08:33N 24°25' E 118°17'0 0.0
2014-Jul-19 07:31N 24°25' E 118°17'7 7.3
2014-Jul-19 06:34N 24°31' E 118°13'2 2.3
2014-Jul-19 05:33N 24°32' E 118°11'9 9.0
2014-Jul-19 04:33N 24°25' E 118°17'0 0.1
2014-Jul-19 03:33N 24°25' E 118°17'4 4.1
2014-Jul-19 02:33N 24°29' E 118°16'3 3.2
2014-Jul-19 01:34N 24°31' E 118°13'7 3.2
2014-Jul-18 23:22N 24°25' E 118°17'0 0.0
2014-Jul-18 22:33N 24°25' E 118°17'0 0.0
2014-Jul-18 21:33N 24°25' E 118°17'0 0.0
2014-Jul-18 20:16N 24°25' E 118°17'0 0.0
2014-Jul-18 19:32N 24°25' E 118°17'0 0.0
2014-Jul-18 18:32N 24°25' E 118°17'0 0.0
2014-Jul-18 17:27N 24°25' E 118°17'0 0.0
2014-Jul-18 16:33N 24°25' E 118°17'0 0.0
2014-Jul-18 15:26N 24°25' E 118°17'0 0.0
2014-Jul-18 10:33N 24°25' E 118°17'9 9.0
2014-Jul-18 09:34N 24°32' E 118°11'8 8.3
2014-Jul-18 08:34N 24°26' E 118°17'1 0.8
2014-Jul-18 07:33N 24°25' E 118°17'0 0.0
2014-Jul-18 06:33N 24°25' E 118°17'8 8.4
2014-Jul-18 05:33N 24°32' E 118°12'0 0.2
2014-Jul-18 04:33N 24°32' E 118°12'8 8.1
2014-Jul-18 03:32N 24°25' E 118°17'0 0.5
2014-Jul-18 02:33N 24°25' E 118°17'0 0.0
2014-Jul-18 01:33N 24°25' E 118°17'0 0.0
2014-Jul-18 00:33N 24°25' E 118°17'0 0.0
2014-Jul-17 23:33N 24°25' E 118°17'0 0.0
2014-Jul-17 22:33N 24°25' E 118°17'0 0.0
2014-Jul-17 21:34N 24°25' E 118°17'0 0.0
2014-Jul-17 20:33N 24°25' E 118°17'0 0.0
2014-Jul-17 19:33N 24°25' E 118°17'0 0.0
2014-Jul-17 18:33N 24°25' E 118°17'0 0.0
2014-Jul-17 17:33N 24°25' E 118°17'0 0.0
2014-Jul-17 16:32N 24°25' E 118°17'0 0.0
2014-Jul-17 15:33N 24°25' E 118°17'0 0.0
2014-Jul-17 11:04N 24°25' E 118°17'0 0.0
2014-Jul-17 10:33N 24°25' E 118°17'0 0.0
2014-Jul-17 09:33N 24°25' E 118°17'0 0.0
2014-Jul-17 08:32N 24°25' E 118°17'0 0.0
2014-Jul-17 07:33N 24°25' E 118°17'7 6.8
2014-Jul-17 06:33N 24°31' E 118°13'1 1.3
2014-Jul-17 05:33N 24°32' E 118°12'8 6.3
2014-Jul-17 04:13N 24°25' E 118°17'0 0.1
2014-Jul-17 03:33N 24°25' E 118°17'0 0.0
2014-Jul-17 02:33N 24°25' E 118°17'0 0.5
2014-Jul-17 01:32N 24°25' E 118°17'7 7.2
2014-Jul-17 00:32N 24°31' E 118°13'8 7.6
2014-Jul-16 23:33N 24°25' E 118°17'0 0.0
2014-Jul-16 22:32N 24°25' E 118°17'0 0.0
2014-Jul-16 21:33N 24°25' E 118°17'0 0.0
2014-Jul-16 20:31N 24°25' E 118°17'0 0.0
2014-Jul-16 19:32N 24°25' E 118°17'0 0.0
2014-Jul-16 18:33N 24°25' E 118°17'0 0.0
2014-Jul-16 17:33N 24°25' E 118°17'0 0.0
2014-Jul-16 16:32N 24°25' E 118°17'0 0.0
2014-Jul-16 15:33N 24°25' E 118°17'0 0.1
2014-Jul-16 11:04N 24°25' E 118°17'917.1
2014-Jul-16 10:33N 24°32' E 118°11'9 8.9
2014-Jul-16 09:34N 24°25' E 118°17'0 0.2
2014-Jul-16 08:30N 24°25' E 118°17'7 7.6
2014-Jul-16 07:34N 24°31' E 118°13'2 2.1
2014-Jul-16 06:33N 24°32' E 118°11'9 8.7
2014-Jul-16 05:31N 24°25' E 118°17'0 0.5
2014-Jul-16 04:33N 24°25' E 118°17'0 0.0
2014-Jul-16 03:33N 24°25' E 118°17'0 0.0
2014-Jul-16 02:33N 24°25' E 118°17'0 0.0
2014-Jul-16 01:27N 24°25' E 118°17'0 0.1
2014-Jul-16 00:33N 24°25' E 118°17'0 0.0
2014-Jul-15 23:34N 24°25' E 118°17'0 0.0
2014-Jul-15 22:34N 24°25' E 118°17'0 0.0
2014-Jul-15 21:33N 24°25' E 118°17'0 0.0
2014-Jul-15 20:33N 24°25' E 118°17'0 0.0
2014-Jul-15 19:33N 24°25' E 118°17'0 0.0
2014-Jul-15 18:34N 24°25' E 118°17'0 0.0
2014-Jul-15 17:33N 24°25' E 118°17'0 0.0
2014-Jul-15 16:34N 24°25' E 118°17'0 0.0
2014-Jul-15 15:33N 24°25' E 118°17'0 0.0
2014-Jul-15 11:05N 24°25' E 118°17'0 0.0
2014-Jul-15 10:33N 24°25' E 118°17'0 0.5
2014-Jul-15 09:33N 24°25' E 118°17'9 8.9
2014-Jul-15 08:32N 24°32' E 118°11'9 8.9
2014-Jul-15 07:34N 24°25' E 118°17'0 0.3
2014-Jul-15 06:33N 24°25' E 118°17'8 7.7
2014-Jul-15 05:33N 24°32' E 118°13'2 1.6
2014-Jul-15 04:34N 24°32' E 118°11'9 6.3
2014-Jul-15 03:08N 24°25' E 118°17'0 0.5
2014-Jul-15 02:28N 24°25' E 118°17'0 0.0
2014-Jul-15 01:30N 24°25' E 118°17'0 0.0
2014-Jul-15 00:33N 24°25' E 118°17'0 0.0
2014-Jul-14 23:33N 24°25' E 118°17'0 0.0
2014-Jul-14 22:33N 24°25' E 118°17'0 0.0
2014-Jul-14 21:33N 24°25' E 118°17'0 0.0
2014-Jul-14 20:33N 24°25' E 118°17'0 0.0
2014-Jul-14 19:33N 24°25' E 118°17'0 0.0
2014-Jul-14 18:33N 24°25' E 118°17'0 0.0
2014-Jul-14 17:33N 24°25' E 118°17'0 0.0
2014-Jul-14 16:33N 24°25' E 118°17'0 0.0
2014-Jul-14 15:33N 24°25' E 118°17'0 0.0
2014-Jul-14 10:33N 24°25' E 118°17'2 2.2
2014-Jul-14 09:32N 24°28' E 118°17'7 6.9
2014-Jul-14 08:33N 24°32' E 118°11'9 8.6
2014-Jul-14 07:32N 24°25' E 118°17'0 0.3
2014-Jul-14 06:32N 24°25' E 118°17'0 0.0
2014-Jul-14 05:31N 24°25' E 118°17'0 0.0
2014-Jul-14 04:33N 24°25' E 118°17'0 0.0
2014-Jul-14 03:33N 24°25' E 118°17'0 0.3
2014-Jul-14 02:33N 24°26' E 118°17'8 8.4
2014-Jul-14 01:34N 24°32' E 118°11'9 8.9
2014-Jul-14 00:33N 24°25' E 118°17'0 0.0
2014-Jul-13 23:28N 24°25' E 118°17'0 0.0
2014-Jul-13 22:30N 24°25' E 118°17'0 0.0
2014-Jul-13 21:27N 24°25' E 118°17'0 0.0
2014-Jul-13 18:21N 24°25' E 118°17'  
Track history (hours):
 
Tides and Currents Weather Stations Pressure Air Temp Water Temp Dewpoint Dewpoint Depression Visibility Wind Speed Wind Dir Waves Ship Positions

Marco Polo

Last reported at 2014-Jul-23 17:33 UTC. Time now 2014-Jul-23 18:06 UTC.
Position N 24°25' E 118°18'.

Length 32 m.

MMSI: 416000256.

Date/timePositionNaut miles runAvg speedWind from/ knotsBaromVisibWave heightAir tempDewpointWater temp
2014-Jul-23 17:33N 24°25' E 118°18'0 0.0
2014-Jul-23 16:33N 24°25' E 118°18'0 0.0
2014-Jul-23 15:33N 24°25' E 118°18'0 0.0
2014-Jul-23 11:04N 24°25' E 118°18'0 0.0
2014-Jul-23 10:33N 24°25' E 118°18'0 0.0
2014-Jul-23 09:33N 24°25' E 118°18'0 0.0
2014-Jul-23 08:33N 24°25' E 118°18'0 0.0
2014-Jul-23 07:32N 24°25' E 118°18'0 0.0
2014-Jul-23 06:33N 24°25' E 118°18'0 0.0
2014-Jul-23 05:33N 24°25' E 118°18'0 0.0
2014-Jul-23 04:23N 24°25' E 118°18'0 0.0
2014-Jul-23 03:33N 24°25' E 118°18'0 0.0
2014-Jul-23 02:33N 24°25' E 118°18'0 0.0
2014-Jul-23 01:33N 24°25' E 118°18'0 0.0
2014-Jul-23 00:33N 24°25' E 118°18'0 0.0
2014-Jul-22 23:32N 24°25' E 118°18'0 0.0
2014-Jul-22 22:33N 24°25' E 118°18'0 0.0
2014-Jul-22 21:33N 24°25' E 118°18'0 0.0
2014-Jul-22 20:33N 24°25' E 118°18'0 0.0
2014-Jul-22 19:34N 24°25' E 118°18'0 0.0
2014-Jul-22 18:33N 24°25' E 118°18'0 0.0
2014-Jul-22 17:33N 24°25' E 118°18'0 0.0
2014-Jul-22 16:33N 24°25' E 118°18'0 0.0
2014-Jul-22 15:33N 24°25' E 118°18'0 0.0
2014-Jul-22 11:05N 24°25' E 118°18'0 0.0
2014-Jul-22 10:33N 24°25' E 118°18'0 0.0
2014-Jul-22 09:33N 24°25' E 118°18'0 0.0
2014-Jul-22 08:32N 24°25' E 118°18'0 0.4
2014-Jul-22 07:33N 24°25' E 118°17'9 8.9
2014-Jul-22 06:33N 24°32' E 118°11'2 2.3
2014-Jul-22 05:33N 24°31' E 118°13'7 6.8
2014-Jul-22 04:31N 24°25' E 118°17'0 0.5
2014-Jul-22 03:33N 24°25' E 118°17'0 0.0
2014-Jul-22 02:33N 24°25' E 118°17'0 0.4
2014-Jul-22 01:33N 24°26' E 118°17'7 7.4
2014-Jul-22 00:34N 24°32' E 118°12'8 7.2
2014-Jul-21 23:26N 24°25' E 118°17'0 0.0
2014-Jul-21 22:33N 24°25' E 118°17'0 0.0
2014-Jul-21 11:04N 24°25' E 118°17'814.7
2014-Jul-21 10:33N 24°31' E 118°13'7 7.4
2014-Jul-21 09:33N 24°25' E 118°17'0 0.3
2014-Jul-21 08:33N 24°25' E 118°17'0 0.0
2014-Jul-21 02:30N 24°25' E 118°17'0 0.0
2014-Jul-21 01:18N 24°25' E 118°17'0 0.0
2014-Jul-21 00:24N 24°25' E 118°17'0 0.0
2014-Jul-20 23:07N 24°25' E 118°17'0 0.0
2014-Jul-20 22:30N 24°25' E 118°17'0 0.0
2014-Jul-20 21:33N 24°25' E 118°17'0 0.0
2014-Jul-20 20:29N 24°25' E 118°17'0 0.0
2014-Jul-20 19:33N 24°25' E 118°17'0 0.0
2014-Jul-20 18:26N 24°25' E 118°17'0 0.0
2014-Jul-20 10:33N 24°25' E 118°17'0 0.0
2014-Jul-20 09:32N 24°25' E 118°17'0 0.5
2014-Jul-20 08:33N 24°25' E 118°17'8 7.7
2014-Jul-20 07:33N 24°31' E 118°13'0 0.2
2014-Jul-20 06:33N 24°31' E 118°13'7 7.3
2014-Jul-20 05:32N 24°25' E 118°17'0 0.1
2014-Jul-20 04:33N 24°25' E 118°17'9 9.0
2014-Jul-20 03:33N 24°32' E 118°11'2 1.9
2014-Jul-20 02:33N 24°31' E 118°13'7 7.4
2014-Jul-20 01:33N 24°25' E 118°17'0 0.1
2014-Jul-20 00:33N 24°25' E 118°17'0 0.0
2014-Jul-19 23:33N 24°25' E 118°17'0 0.0
2014-Jul-19 22:34N 24°25' E 118°17'0 0.0
2014-Jul-19 21:34N 24°25' E 118°17'0 0.0
2014-Jul-19 20:34N 24°25' E 118°17'0 0.0
2014-Jul-19 19:34N 24°25' E 118°17'0 0.0
2014-Jul-19 18:34N 24°25' E 118°17'0 0.0
2014-Jul-19 17:33N 24°25' E 118°17'0 0.0
2014-Jul-19 16:33N 24°25' E 118°17'0 0.0
2014-Jul-19 15:33N 24°25' E 118°17'0 0.0
2014-Jul-19 11:04N 24°25' E 118°17'0 0.0
2014-Jul-19 10:33N 24°25' E 118°17'0 0.0
2014-Jul-19 09:34N 24°25' E 118°17'0 0.0
2014-Jul-19 08:33N 24°25' E 118°17'0 0.0
2014-Jul-19 07:31N 24°25' E 118°17'7 7.3
2014-Jul-19 06:34N 24°31' E 118°13'2 2.3
2014-Jul-19 05:33N 24°32' E 118°11'9 9.0
2014-Jul-19 04:33N 24°25' E 118°17'0 0.1
2014-Jul-19 03:33N 24°25' E 118°17'4 4.1
2014-Jul-19 02:33N 24°29' E 118°16'3 3.2
2014-Jul-19 01:34N 24°31' E 118°13'7 3.2
2014-Jul-18 23:22N 24°25' E 118°17'0 0.0
2014-Jul-18 22:33N 24°25' E 118°17'0 0.0
2014-Jul-18 21:33N 24°25' E 118°17'0 0.0
2014-Jul-18 20:16N 24°25' E 118°17'0 0.0
2014-Jul-18 19:32N 24°25' E 118°17'0 0.0
2014-Jul-18 18:32N 24°25' E 118°17'0 0.0
2014-Jul-18 17:27N 24°25' E 118°17'0 0.0
2014-Jul-18 16:33N 24°25' E 118°17'0 0.0
2014-Jul-18 15:26N 24°25' E 118°17'0 0.0
2014-Jul-18 10:33N 24°25' E 118°17'9 9.0
2014-Jul-18 09:34N 24°32' E 118°11'8 8.3
2014-Jul-18 08:34N 24°26' E 118°17'1 0.8
2014-Jul-18 07:33N 24°25' E 118°17'0 0.0
2014-Jul-18 06:33N 24°25' E 118°17'8 8.4
2014-Jul-18 05:33N 24°32' E 118°12'0 0.2
2014-Jul-18 04:33N 24°32' E 118°12'8 8.1
2014-Jul-18 03:32N 24°25' E 118°17'0 0.5
2014-Jul-18 02:33N 24°25' E 118°17'0 0.0
2014-Jul-18 01:33N 24°25' E 118°17'0 0.0
2014-Jul-18 00:33N 24°25' E 118°17'0 0.0
2014-Jul-17 23:33N 24°25' E 118°17'0 0.0
2014-Jul-17 22:33N 24°25' E 118°17'0 0.0
2014-Jul-17 21:34N 24°25' E 118°17'0 0.0
2014-Jul-17 20:33N 24°25' E 118°17'0 0.0
2014-Jul-17 19:33N 24°25' E 118°17'0 0.0
2014-Jul-17 18:33N 24°25' E 118°17'0 0.0
2014-Jul-17 17:33N 24°25' E 118°17'0 0.0
2014-Jul-17 16:32N 24°25' E 118°17'0 0.0
2014-Jul-17 15:33N 24°25' E 118°17'0 0.0
2014-Jul-17 11:04N 24°25' E 118°17'0 0.0
2014-Jul-17 10:33N 24°25' E 118°17'0 0.0
2014-Jul-17 09:33N 24°25' E 118°17'0 0.0
2014-Jul-17 08:32N 24°25' E 118°17'0 0.0
2014-Jul-17 07:33N 24°25' E 118°17'7 6.8
2014-Jul-17 06:33N 24°31' E 118°13'1 1.3
2014-Jul-17 05:33N 24°32' E 118°12'8 6.3
2014-Jul-17 04:13N 24°25' E 118°17'0 0.1
2014-Jul-17 03:33N 24°25' E 118°17'0 0.0
2014-Jul-17 02:33N 24°25' E 118°17'0 0.5
2014-Jul-17 01:32N 24°25' E 118°17'7 7.2
2014-Jul-17 00:32N 24°31' E 118°13'8 7.6
2014-Jul-16 23:33N 24°25' E 118°17'0 0.0
2014-Jul-16 22:32N 24°25' E 118°17'0 0.0
2014-Jul-16 21:33N 24°25' E 118°17'0 0.0
2014-Jul-16 20:31N 24°25' E 118°17'0 0.0
2014-Jul-16 19:32N 24°25' E 118°17'0 0.0
2014-Jul-16 18:33N 24°25' E 118°17'0 0.0
2014-Jul-16 17:33N 24°25' E 118°17'0 0.0
2014-Jul-16 16:32N 24°25' E 118°17'0 0.0
2014-Jul-16 15:33N 24°25' E 118°17'0 0.1
2014-Jul-16 11:04N 24°25' E 118°17'917.1
2014-Jul-16 10:33N 24°32' E 118°11'9 8.9
2014-Jul-16 09:34N 24°25' E 118°17'0 0.2
2014-Jul-16 08:30N 24°25' E 118°17'7 7.6
2014-Jul-16 07:34N 24°31' E 118°13'2 2.1
2014-Jul-16 06:33N 24°32' E 118°11'9 8.7
2014-Jul-16 05:31N 24°25' E 118°17'0 0.5
2014-Jul-16 04:33N 24°25' E 118°17'0 0.0
2014-Jul-16 03:33N 24°25' E 118°17'0 0.0
2014-Jul-16 02:33N 24°25' E 118°17'0 0.0
2014-Jul-16 01:27N 24°25' E 118°17'0 0.1
2014-Jul-16 00:33N 24°25' E 118°17'0 0.0
2014-Jul-15 23:34N 24°25' E 118°17'0 0.0
2014-Jul-15 22:34N 24°25' E 118°17'0 0.0
2014-Jul-15 21:33N 24°25' E 118°17'0 0.0
2014-Jul-15 20:33N 24°25' E 118°17'0 0.0
2014-Jul-15 19:33N 24°25' E 118°17'0 0.0
2014-Jul-15 18:34N 24°25' E 118°17'0 0.0
2014-Jul-15 17:33N 24°25' E 118°17'0 0.0
2014-Jul-15 16:34N 24°25' E 118°17'0 0.0
2014-Jul-15 15:33N 24°25' E 118°17'0 0.0
2014-Jul-15 11:05N 24°25' E 118°17'0 0.0
2014-Jul-15 10:33N 24°25' E 118°17'0 0.5
2014-Jul-15 09:33N 24°25' E 118°17'9 8.9
2014-Jul-15 08:32N 24°32' E 118°11'9 8.9
2014-Jul-15 07:34N 24°25' E 118°17'0 0.3
2014-Jul-15 06:33N 24°25' E 118°17'8 7.7
2014-Jul-15 05:33N 24°32' E 118°13'2 1.6
2014-Jul-15 04:34N 24°32' E 118°11'9 6.3
2014-Jul-15 03:08N 24°25' E 118°17'0 0.5
2014-Jul-15 02:28N 24°25' E 118°17'0 0.0
2014-Jul-15 01:30N 24°25' E 118°17'0 0.0
2014-Jul-15 00:33N 24°25' E 118°17'0 0.0
2014-Jul-14 23:33N 24°25' E 118°17'0 0.0
2014-Jul-14 22:33N 24°25' E 118°17'0 0.0
2014-Jul-14 21:33N 24°25' E 118°17'0 0.0
2014-Jul-14 20:33N 24°25' E 118°17'0 0.0
2014-Jul-14 19:33N 24°25' E 118°17'0 0.0
2014-Jul-14 18:33N 24°25' E 118°17'0 0.0
2014-Jul-14 17:33N 24°25' E 118°17'0 0.0
2014-Jul-14 16:33N 24°25' E 118°17'0 0.0
2014-Jul-14 15:33N 24°25' E 118°17'0 0.0
2014-Jul-14 10:33N 24°25' E 118°17'2 2.2
2014-Jul-14 09:32N 24°28' E 118°17'7 6.9
2014-Jul-14 08:33N 24°32' E 118°11'9 8.6
2014-Jul-14 07:32N 24°25' E 118°17'0 0.3
2014-Jul-14 06:32N 24°25' E 118°17'0 0.0
2014-Jul-14 05:31N 24°25' E 118°17'0 0.0
2014-Jul-14 04:33N 24°25' E 118°17'0 0.0
2014-Jul-14 03:33N 24°25' E 118°17'0 0.3
2014-Jul-14 02:33N 24°26' E 118°17'8 8.4
2014-Jul-14 01:34N 24°32' E 118°11'9 8.9
2014-Jul-14 00:33N 24°25' E 118°17'0 0.0
2014-Jul-13 23:28N 24°25' E 118°17'0 0.0
2014-Jul-13 22:30N 24°25' E 118°17'0 0.0
2014-Jul-13 21:27N 24°25' E 118°17'0 0.0
2014-Jul-13 18:21N 24°25' E 118°17'  

Dump ship's entire track history